AirNav   Pilot Hours Calculator
 
 521 users online  

CA27 Alcatraz Heliport
San Francisco, California, USA

GOING TO SAN FRANCISCO?


FAA INFORMATION EFFECTIVE 07 NOVEMBER 2019

Location

FAA Identifier: CA27
Lat/Long: 37-49-33.3200N 122-25-17.2900W
37-49.555333N 122-25.288167W
37.8259222,-122.4214694
(estimated)
Elevation: 70 ft. / 21 m (estimated)
Variation: 16E (1985)
From city: 2 miles N of SAN FRANCISCO, CA
Time zone: UTC -8 (UTC -7 during Daylight Saving Time)
Zip code: 94123

Heliport Operations

Heliport use: Private use. Permission required prior to landing
Activation date: 10/1975
Control tower: no
ARTCC: OAKLAND CENTER
FSS: OAKLAND FLIGHT SERVICE STATION
Attendance: UNATNDD
Wind indicator: no
Segmented circle: no

Heliport Communications

WX AWOS-AV at 18CN (4 nm S): 119.925 (415-514-4209)
WX ASOS at OAK (11 nm SE): PHONE 510-214-1776
WX ASOS at SFO (13 nm S): PHONE 650-827-8593
WX ASOS at HWD (17 nm SE): PHONE 510-786-3052
WX AWOS-3 at HAF (19 nm S): 127.275 (650-728-5649)
WX ASOS at CCR (20 nm NE): PHONE 925-689-2077

Nearby radio navigation aids

VOR radial/distance  VOR name  Freq  Var
SAUr093/5.1SAUSALITO VOR/DME116.2017E
OAKr286/11.1OAKLAND VOR/DME116.8017E
SFOr333/12.6SAN FRANCISCO VOR/DME115.8017E
SGDr169/21.3SCAGGS ISLAND VORTAC112.1017E
CCRr217/22.1CONCORD VOR/DME117.0017E
PYEr109/26.0POINT REYES VOR/DME113.7017E
OSIr329/26.8WOODSIDE VOR/DME113.9017E
SJCr304/35.3SAN JOSE VOR/DME114.1016E

Heliport Services

Runway Information

Helipad H1

Dimensions: 60 x 60 ft. / 18 x 18 m
Surface: concrete
Latitude: 37-49.555333N
Longitude: 122-25.288167W
Elevation: 70.0 ft.
Traffic pattern: leftleft

Heliport Ownership and Management from official FAA records

Ownership: Publicly-owned
Owner: DEPT OF INT, NATL PARK SVC
GGNRA, FORT MASON
SAN FRANCISCO, CA 94123
Phone 415-561-4720
Manager: FRANK DEAN, SUPT.
GGNRA, FORT MASON
SAN FRANCISCO, CA 94123
Phone 415-561-4900

Additional Remarks

FOR CD CTC NORCAL APCH AT 916-361-0519.

Instrument Procedures

There are no published instrument procedures at CA27.

Some nearby airports with instrument procedures:

KOAK - Metropolitan Oakland International Airport (11 nm SE)
KSFO - San Francisco International Airport (13 nm S)
KHWD - Hayward Executive Airport (17 nm SE)
KHAF - Half Moon Bay Airport (19 nm S)
KCCR - Buchanan Field Airport (20 nm NE)
 
Loc | Ops | Rwys | IFR | FBO | Links
Com | Nav | Svcs | Stats | Notes

Sonoma Jet Center
 
Area around CA27 (Alcatraz Heliport)
 
Road maps at: MapQuest Bing Google
 
Aerial photo
No photo
 
Sectional chart

 
Airport distance calculator
Flying to Alcatraz Heliport? Find the distance to fly.

From to CA27

Sunrise and sunset
Times for 21-Nov-2019
 Local
(UTC-8)
 Zulu
(UTC)
Morning civil twilight06:2914:29
Sunrise06:5814:58
Sunset16:5400:54
Evening civil twilight17:2201:22

Current date and time
Zulu (UTC)  22-Nov-2019 07:07:34
Local (UTC-8)  21-Nov-2019 23:07:34
 
METAR
KOAK 
12nm SE 
220653Z 08003KT 10SM CLR 10/08 A3006 RMK AO2 SLP178 T01000078
KSFO 
13nm S 
220656Z 13004KT 10SM CLR 13/08 A3005 RMK AO2 SLP175 T01280078
KHWD 
17nm SE 
220654Z 07003KT 10SM HZ CLR 09/06 A3005 RMK AO2 SLP186 T00940061
KHAF 
19nm S 
220655Z AUTO 00000KT 8SM CLR 08/06 A3005 RMK AO2
KDVO 
20nm N 
220655Z AUTO 00000KT 4SM BR FEW035 FEW044 06/05 A3006 RMK AO2
KSQL 
20nm SE 
220700Z AUTO 00000KT 10SM FEW021 BKN030 BKN035 12/08 A3006 RMK AO2
KCCR 
20nm NE 
220653Z AUTO 17003KT 10SM CLR 09/06 A3005 RMK AO2 SLP163 T00940056
KAPC 
23nm N 
220654Z AUTO 00000KT 10SM CLR 06/06 A3005 RMK AO2 SLP168 T00610056
TAF
KOAK 
12nm SE 
220540Z 2206/2312 10005KT P6SM SKC FM220800 09004KT P6SM FEW010 FM222200 29007KT P6SM SKC FM230400 30004KT P6SM FEW010 FM230800 VRB03KT P6SM SCT010
KSFO 
13nm S 
220540Z 2206/2312 21005KT P6SM SKC FM221000 VRB04KT P6SM FEW010 FM221700 06004KT P6SM FEW020 FM230000 28009KT P6SM FEW020 FM230400 VRB03KT P6SM FEW015 FM230900 VRB03KT P6SM SCT010
NOTAMs
Click for the latest NOTAMs
NOTAMs are issued by the DoD/FAA and will open in a separate window not controlled by AirNav.

 

 
 

Would you like to see your business listed on this page?

 If your business provides an interesting product or service to pilots, flight crews, aircraft, or users of the Alcatraz Heliport, you should consider listing it here.  To start the listing process, click on the button below
 
Add a business
 

Other Pages about Alcatraz Heliport

Update a link
 
Copyright © AirNav, LLC. All rights reserved. Privacy Policy  Contact